sensor_id;sensor_type;location;lat;lon;timestamp;temperature;humidity
51007;DHT22;37034;47.886;-3.904;2022-12-19T00:01:21;14.60;99.90
51007;DHT22;37034;47.886;-3.904;2022-12-19T00:03:49;14.50;99.90
51007;DHT22;37034;47.886;-3.904;2022-12-19T00:06:16;14.50;99.90
51007;DHT22;37034;47.886;-3.904;2022-12-19T00:08:47;14.50;99.90
51007;DHT22;37034;47.886;-3.904;2022-12-19T00:11:15;14.50;99.90
51007;DHT22;37034;47.886;-3.904;2022-12-19T00:13:41;14.50;99.90
51007;DHT22;37034;47.886;-3.904;2022-12-19T00:16:13;14.50;99.90
51007;DHT22;37034;47.886;-3.904;2022-12-19T00:18:40;14.50;99.90
51007;DHT22;37034;47.886;-3.904;2022-12-19T00:21:06;14.50;99.90
51007;DHT22;37034;47.886;-3.904;2022-12-19T00:23:33;14.50;99.90
51007;DHT22;37034;47.886;-3.904;2022-12-19T00:26:08;14.60;99.90
51007;DHT22;37034;47.886;-3.904;2022-12-19T00:28:34;14.60;99.90
51007;DHT22;37034;47.886;-3.904;2022-12-19T00:31:01;14.50;99.90
51007;DHT22;37034;47.886;-3.904;2022-12-19T00:33:27;14.50;99.90
51007;DHT22;37034;47.886;-3.904;2022-12-19T00:35:59;14.50;99.90
51007;DHT22;37034;47.886;-3.904;2022-12-19T00:38:26;14.60;99.90
51007;DHT22;37034;47.886;-3.904;2022-12-19T00:40:52;14.60;99.90
51007;DHT22;37034;47.886;-3.904;2022-12-19T00:43:17;14.60;99.90
51007;DHT22;37034;47.886;-3.904;2022-12-19T00:45:43;14.50;99.90
51007;DHT22;37034;47.886;-3.904;2022-12-19T00:48:09;14.50;99.90
51007;DHT22;37034;47.886;-3.904;2022-12-19T00:50:35;14.60;99.90
51007;DHT22;37034;47.886;-3.904;2022-12-19T00:53:00;14.60;99.90
51007;DHT22;37034;47.886;-3.904;2022-12-19T00:55:26;14.50;99.90
51007;DHT22;37034;47.886;-3.904;2022-12-19T00:57:52;14.60;99.90
51007;DHT22;37034;47.886;-3.904;2022-12-19T01:00:18;14.60;99.90
51007;DHT22;37034;47.886;-3.904;2022-12-19T01:02:44;14.60;99.90
51007;DHT22;37034;47.886;-3.904;2022-12-19T01:05:10;14.60;99.90
51007;DHT22;37034;47.886;-3.904;2022-12-19T01:07:36;14.60;99.90
51007;DHT22;37034;47.886;-3.904;2022-12-19T01:10:02;14.60;99.90
51007;DHT22;37034;47.886;-3.904;2022-12-19T01:12:28;14.60;99.90
51007;DHT22;37034;47.886;-3.904;2022-12-19T01:15:18;14.60;99.90
51007;DHT22;37034;47.886;-3.904;2022-12-19T01:17:46;14.50;99.90
51007;DHT22;37034;47.886;-3.904;2022-12-19T01:20:16;14.50;99.90
51007;DHT22;37034;47.886;-3.904;2022-12-19T01:22:43;14.60;99.90
51007;DHT22;37034;47.886;-3.904;2022-12-19T01:25:10;14.70;99.90
51007;DHT22;37034;47.886;-3.904;2022-12-19T01:27:36;14.70;99.90
51007;DHT22;37034;47.886;-3.904;2022-12-19T01:30:04;14.70;99.90
51007;DHT22;37034;47.886;-3.904;2022-12-19T01:32:30;14.70;99.90
51007;DHT22;37034;47.886;-3.904;2022-12-19T01:34:55;14.70;99.90
51007;DHT22;37034;47.886;-3.904;2022-12-19T01:37:21;14.70;99.90
51007;DHT22;37034;47.886;-3.904;2022-12-19T01:39:47;14.70;99.90
51007;DHT22;37034;47.886;-3.904;2022-12-19T01:42:15;14.70;99.90
51007;DHT22;37034;47.886;-3.904;2022-12-19T01:47:37;14.80;99.90
51007;DHT22;37034;47.886;-3.904;2022-12-19T01:50:12;14.80;99.90
51007;DHT22;37034;47.886;-3.904;2022-12-19T01:52:39;14.70;99.90
51007;DHT22;37034;47.886;-3.904;2022-12-19T01:55:05;14.80;99.90
51007;DHT22;37034;47.886;-3.904;2022-12-19T01:57:31;14.70;99.90
51007;DHT22;37034;47.886;-3.904;2022-12-19T01:59:59;14.80;99.90
51007;DHT22;37034;47.886;-3.904;2022-12-19T02:02:32;14.90;99.90
51007;DHT22;37034;47.886;-3.904;2022-12-19T02:05:00;14.80;99.90
51007;DHT22;37034;47.886;-3.904;2022-12-19T02:07:26;14.80;99.90
51007;DHT22;37034;47.886;-3.904;2022-12-19T02:09:54;14.80;99.90
51007;DHT22;37034;47.886;-3.904;2022-12-19T02:12:21;14.70;99.90
51007;DHT22;37034;47.886;-3.904;2022-12-19T02:14:48;14.70;99.90
51007;DHT22;37034;47.886;-3.904;2022-12-19T02:17:44;14.70;99.90
51007;DHT22;37034;47.886;-3.904;2022-12-19T02:31:40;14.70;99.90
51007;DHT22;37034;47.886;-3.904;2022-12-19T02:34:20;14.80;99.90
51007;DHT22;37034;47.886;-3.904;2022-12-19T02:36:53;14.70;99.90
51007;DHT22;37034;47.886;-3.904;2022-12-19T02:42:27;14.80;99.90
51007;DHT22;37034;47.886;-3.904;2022-12-19T02:44:56;14.70;99.90
51007;DHT22;37034;47.886;-3.904;2022-12-19T02:47:26;14.70;99.90
51007;DHT22;37034;47.886;-3.904;2022-12-19T02:49:52;14.70;99.90
51007;DHT22;37034;47.886;-3.904;2022-12-19T02:54:58;14.70;99.90
51007;DHT22;37034;47.886;-3.904;2022-12-19T02:57:28;14.70;99.90
51007;DHT22;37034;47.886;-3.904;2022-12-19T03:05:13;14.80;99.90
51007;DHT22;37034;47.886;-3.904;2022-12-19T03:10:42;14.90;99.90
51007;DHT22;37034;47.886;-3.904;2022-12-19T03:13:47;14.90;99.90
51007;DHT22;37034;47.886;-3.904;2022-12-19T03:16:07;14.90;99.90
51007;DHT22;37034;47.886;-3.904;2022-12-19T03:18:33;14.90;99.90
51007;DHT22;37034;47.886;-3.904;2022-12-19T03:23:52;14.80;99.90
51007;DHT22;37034;47.886;-3.904;2022-12-19T03:26:21;14.80;99.90
51007;DHT22;37034;47.886;-3.904;2022-12-19T03:28:53;14.90;99.90
51007;DHT22;37034;47.886;-3.904;2022-12-19T03:31:26;14.80;99.90
51007;DHT22;37034;47.886;-3.904;2022-12-19T03:34:29;14.80;99.90
51007;DHT22;37034;47.886;-3.904;2022-12-19T03:36:59;14.80;99.90
51007;DHT22;37034;47.886;-3.904;2022-12-19T03:39:27;14.80;99.90
51007;DHT22;37034;47.886;-3.904;2022-12-19T03:41:55;14.70;99.90
51007;DHT22;37034;47.886;-3.904;2022-12-19T03:44:42;14.70;99.90
51007;DHT22;37034;47.886;-3.904;2022-12-19T03:47:16;14.60;99.90
51007;DHT22;37034;47.886;-3.904;2022-12-19T03:49:44;14.70;99.90
51007;DHT22;37034;47.886;-3.904;2022-12-19T03:55:00;14.60;99.90
51007;DHT22;37034;47.886;-3.904;2022-12-19T03:57:38;14.60;99.90
51007;DHT22;37034;47.886;-3.904;2022-12-19T04:00:08;14.60;99.90
51007;DHT22;37034;47.886;-3.904;2022-12-19T04:02:37;14.60;99.90
51007;DHT22;37034;47.886;-3.904;2022-12-19T04:05:07;14.60;99.90
51007;DHT22;37034;47.886;-3.904;2022-12-19T04:07:34;14.50;99.90
51007;DHT22;37034;47.886;-3.904;2022-12-19T04:10:05;14.40;99.90
51007;DHT22;37034;47.886;-3.904;2022-12-19T04:12:38;14.50;99.90
51007;DHT22;37034;47.886;-3.904;2022-12-19T04:15:07;14.50;99.90
51007;DHT22;37034;47.886;-3.904;2022-12-19T04:17:40;14.50;99.90
51007;DHT22;37034;47.886;-3.904;2022-12-19T04:20:27;14.60;99.90
51007;DHT22;37034;47.886;-3.904;2022-12-19T04:23:28;14.70;99.90
51007;DHT22;37034;47.886;-3.904;2022-12-19T04:25:59;14.60;99.90
51007;DHT22;37034;47.886;-3.904;2022-12-19T04:31:02;14.70;99.90
51007;DHT22;37034;47.886;-3.904;2022-12-19T04:33:28;14.70;99.90
51007;DHT22;37034;47.886;-3.904;2022-12-19T04:35:54;14.70;99.90
51007;DHT22;37034;47.886;-3.904;2022-12-19T04:38:20;14.70;99.90
51007;DHT22;37034;47.886;-3.904;2022-12-19T04:40:45;14.70;99.90
51007;DHT22;37034;47.886;-3.904;2022-12-19T04:43:11;14.70;99.90
51007;DHT22;37034;47.886;-3.904;2022-12-19T04:45:39;14.60;99.90
51007;DHT22;37034;47.886;-3.904;2022-12-19T04:48:05;14.60;99.90
51007;DHT22;37034;47.886;-3.904;2022-12-19T04:50:32;14.70;99.90
51007;DHT22;37034;47.886;-3.904;2022-12-19T04:52:58;14.70;99.90
51007;DHT22;37034;47.886;-3.904;2022-12-19T04:55:26;14.70;99.90
51007;DHT22;37034;47.886;-3.904;2022-12-19T04:57:51;14.70;99.90
51007;DHT22;37034;47.886;-3.904;2022-12-19T05:00:17;14.70;99.90
51007;DHT22;37034;47.886;-3.904;2022-12-19T05:02:43;14.60;99.90
51007;DHT22;37034;47.886;-3.904;2022-12-19T05:05:09;14.60;99.90
51007;DHT22;37034;47.886;-3.904;2022-12-19T05:07:35;14.60;99.90
51007;DHT22;37034;47.886;-3.904;2022-12-19T05:10:01;14.50;99.90
51007;DHT22;37034;47.886;-3.904;2022-12-19T05:12:28;14.50;99.90
51007;DHT22;37034;47.886;-3.904;2022-12-19T05:14:53;14.50;99.90
51007;DHT22;37034;47.886;-3.904;2022-12-19T05:17:19;14.50;99.90
51007;DHT22;37034;47.886;-3.904;2022-12-19T05:19:45;14.50;99.90
51007;DHT22;37034;47.886;-3.904;2022-12-19T05:22:11;14.50;99.90
51007;DHT22;37034;47.886;-3.904;2022-12-19T05:24:37;14.50;99.90
51007;DHT22;37034;47.886;-3.904;2022-12-19T05:27:02;14.50;99.90
51007;DHT22;37034;47.886;-3.904;2022-12-19T05:29:28;14.50;99.90
51007;DHT22;37034;47.886;-3.904;2022-12-19T05:31:54;14.50;99.90
51007;DHT22;37034;47.886;-3.904;2022-12-19T05:34:20;14.50;99.90
51007;DHT22;37034;47.886;-3.904;2022-12-19T05:36:45;14.40;99.90
51007;DHT22;37034;47.886;-3.904;2022-12-19T05:39:11;14.40;99.90
51007;DHT22;37034;47.886;-3.904;2022-12-19T05:41:37;14.40;99.90
51007;DHT22;37034;47.886;-3.904;2022-12-19T05:44:02;14.40;99.90
51007;DHT22;37034;47.886;-3.904;2022-12-19T05:46:28;14.30;99.90
51007;DHT22;37034;47.886;-3.904;2022-12-19T05:48:54;14.40;99.90
51007;DHT22;37034;47.886;-3.904;2022-12-19T05:51:20;14.30;99.90
51007;DHT22;37034;47.886;-3.904;2022-12-19T05:53:46;14.30;99.90
51007;DHT22;37034;47.886;-3.904;2022-12-19T05:56:20;14.40;99.90
51007;DHT22;37034;47.886;-3.904;2022-12-19T05:58:46;14.30;99.90
51007;DHT22;37034;47.886;-3.904;2022-12-19T06:03:41;14.30;99.90
51007;DHT22;37034;47.886;-3.904;2022-12-19T06:06:10;14.30;99.90
51007;DHT22;37034;47.886;-3.904;2022-12-19T06:08:36;14.20;99.90
51007;DHT22;37034;47.886;-3.904;2022-12-19T06:11:03;14.20;99.90
51007;DHT22;37034;47.886;-3.904;2022-12-19T06:13:30;14.20;99.90
51007;DHT22;37034;47.886;-3.904;2022-12-19T06:16:00;14.20;99.90
51007;DHT22;37034;47.886;-3.904;2022-12-19T06:18:27;14.20;99.90
51007;DHT22;37034;47.886;-3.904;2022-12-19T06:21:01;14.20;99.90
51007;DHT22;37034;47.886;-3.904;2022-12-19T06:23:28;14.20;99.90
51007;DHT22;37034;47.886;-3.904;2022-12-19T06:25:56;14.20;99.90
51007;DHT22;37034;47.886;-3.904;2022-12-19T06:28:22;14.30;99.90
51007;DHT22;37034;47.886;-3.904;2022-12-19T06:30:48;14.30;99.90
51007;DHT22;37034;47.886;-3.904;2022-12-19T06:33:14;14.40;99.90
51007;DHT22;37034;47.886;-3.904;2022-12-19T06:35:39;14.40;99.90
51007;DHT22;37034;47.886;-3.904;2022-12-19T06:38:05;14.40;99.90
51007;DHT22;37034;47.886;-3.904;2022-12-19T06:40:31;14.40;99.90
51007;DHT22;37034;47.886;-3.904;2022-12-19T06:43:15;14.50;99.90
51007;DHT22;37034;47.886;-3.904;2022-12-19T06:45:40;14.40;99.90
51007;DHT22;37034;47.886;-3.904;2022-12-19T06:48:06;14.50;99.90
51007;DHT22;37034;47.886;-3.904;2022-12-19T06:50:32;14.50;99.90
51007;DHT22;37034;47.886;-3.904;2022-12-19T06:52:57;14.50;99.90
51007;DHT22;37034;47.886;-3.904;2022-12-19T06:55:24;14.40;99.90
51007;DHT22;37034;47.886;-3.904;2022-12-19T06:57:50;14.30;99.90
51007;DHT22;37034;47.886;-3.904;2022-12-19T07:00:15;14.40;99.90
51007;DHT22;37034;47.886;-3.904;2022-12-19T07:02:44;14.40;99.90
51007;DHT22;37034;47.886;-3.904;2022-12-19T07:05:13;14.40;99.90
51007;DHT22;37034;47.886;-3.904;2022-12-19T07:07:39;14.40;99.90
51007;DHT22;37034;47.886;-3.904;2022-12-19T07:10:07;14.40;99.90
51007;DHT22;37034;47.886;-3.904;2022-12-19T07:12:33;14.40;99.90
51007;DHT22;37034;47.886;-3.904;2022-12-19T07:15:00;14.50;99.90
51007;DHT22;37034;47.886;-3.904;2022-12-19T07:17:27;14.50;99.90
51007;DHT22;37034;47.886;-3.904;2022-12-19T07:19:55;14.50;99.90
51007;DHT22;37034;47.886;-3.904;2022-12-19T07:22:22;14.50;99.90
51007;DHT22;37034;47.886;-3.904;2022-12-19T07:24:49;14.50;99.90
51007;DHT22;37034;47.886;-3.904;2022-12-19T07:27:15;14.50;99.90
51007;DHT22;37034;47.886;-3.904;2022-12-19T07:29:41;14.50;99.90
51007;DHT22;37034;47.886;-3.904;2022-12-19T07:32:06;14.60;99.90
51007;DHT22;37034;47.886;-3.904;2022-12-19T07:34:32;14.60;99.90
51007;DHT22;37034;47.886;-3.904;2022-12-19T07:36:58;14.50;99.90
51007;DHT22;37034;47.886;-3.904;2022-12-19T07:39:23;14.50;99.90
51007;DHT22;37034;47.886;-3.904;2022-12-19T07:41:49;14.40;99.90
51007;DHT22;37034;47.886;-3.904;2022-12-19T07:44:15;14.50;99.90
51007;DHT22;37034;47.886;-3.904;2022-12-19T07:46:41;14.50;99.90
51007;DHT22;37034;47.886;-3.904;2022-12-19T07:49:07;14.50;99.90
51007;DHT22;37034;47.886;-3.904;2022-12-19T07:51:33;14.50;99.90
51007;DHT22;37034;47.886;-3.904;2022-12-19T07:53:59;14.60;99.90
51007;DHT22;37034;47.886;-3.904;2022-12-19T07:56:25;14.50;99.90
51007;DHT22;37034;47.886;-3.904;2022-12-19T07:58:50;14.50;99.90
51007;DHT22;37034;47.886;-3.904;2022-12-19T08:01:17;14.50;99.90
51007;DHT22;37034;47.886;-3.904;2022-12-19T08:03:43;14.50;99.90
51007;DHT22;37034;47.886;-3.904;2022-12-19T08:06:09;14.50;99.90
51007;DHT22;37034;47.886;-3.904;2022-12-19T08:08:35;14.50;99.90
51007;DHT22;37034;47.886;-3.904;2022-12-19T08:11:12;14.50;99.90
51007;DHT22;37034;47.886;-3.904;2022-12-19T08:13:39;14.50;99.90
51007;DHT22;37034;47.886;-3.904;2022-12-19T08:16:06;14.50;99.90
51007;DHT22;37034;47.886;-3.904;2022-12-19T08:18:31;14.50;99.90
51007;DHT22;37034;47.886;-3.904;2022-12-19T08:20:57;14.50;99.90
51007;DHT22;37034;47.886;-3.904;2022-12-19T08:23:23;14.60;99.90
51007;DHT22;37034;47.886;-3.904;2022-12-19T08:25:58;14.50;99.90
51007;DHT22;37034;47.886;-3.904;2022-12-19T08:28:24;14.40;99.90
51007;DHT22;37034;47.886;-3.904;2022-12-19T08:30:49;14.50;99.90
51007;DHT22;37034;47.886;-3.904;2022-12-19T08:33:15;14.50;99.90
51007;DHT22;37034;47.886;-3.904;2022-12-19T08:35:46;14.50;99.90
51007;DHT22;37034;47.886;-3.904;2022-12-19T08:38:12;14.50;99.90
51007;DHT22;37034;47.886;-3.904;2022-12-19T08:41:03;14.50;99.90
51007;DHT22;37034;47.886;-3.904;2022-12-19T08:43:29;14.50;99.90
51007;DHT22;37034;47.886;-3.904;2022-12-19T08:45:55;14.50;99.90
51007;DHT22;37034;47.886;-3.904;2022-12-19T08:48:21;14.50;99.90
51007;DHT22;37034;47.886;-3.904;2022-12-19T08:51:05;14.50;99.90
51007;DHT22;37034;47.886;-3.904;2022-12-19T08:57:01;14.50;99.90
51007;DHT22;37034;47.886;-3.904;2022-12-19T08:59:32;14.50;99.90
51007;DHT22;37034;47.886;-3.904;2022-12-19T09:02:04;14.60;99.90
51007;DHT22;37034;47.886;-3.904;2022-12-19T09:04:50;14.60;99.90
51007;DHT22;37034;47.886;-3.904;2022-12-19T09:07:43;14.70;99.90
51007;DHT22;37034;47.886;-3.904;2022-12-19T09:10:55;14.90;99.90
51007;DHT22;37034;47.886;-3.904;2022-12-19T09:16:49;14.70;99.90
51007;DHT22;37034;47.886;-3.904;2022-12-19T09:19:20;14.80;99.90
51007;DHT22;37034;47.886;-3.904;2022-12-19T09:21:46;14.60;99.90
51007;DHT22;37034;47.886;-3.904;2022-12-19T09:24:15;14.70;99.90
51007;DHT22;37034;47.886;-3.904;2022-12-19T09:26:43;14.70;99.90
51007;DHT22;37034;47.886;-3.904;2022-12-19T09:29:11;14.70;99.90
51007;DHT22;37034;47.886;-3.904;2022-12-19T09:31:55;14.60;99.90
51007;DHT22;37034;47.886;-3.904;2022-12-19T09:34:26;14.60;99.90
51007;DHT22;37034;47.886;-3.904;2022-12-19T09:36:53;14.70;99.90
51007;DHT22;37034;47.886;-3.904;2022-12-19T09:39:36;14.70;99.90
51007;DHT22;37034;47.886;-3.904;2022-12-19T09:45:48;14.80;99.90
51007;DHT22;37034;47.886;-3.904;2022-12-19T09:48:33;14.80;99.90
51007;DHT22;37034;47.886;-3.904;2022-12-19T09:51:13;14.90;99.90
51007;DHT22;37034;47.886;-3.904;2022-12-19T09:56:51;15.00;99.90
51007;DHT22;37034;47.886;-3.904;2022-12-19T10:02:43;15.00;99.90
51007;DHT22;37034;47.886;-3.904;2022-12-19T10:05:40;15.00;99.90
51007;DHT22;37034;47.886;-3.904;2022-12-19T10:08:34;15.00;99.90
51007;DHT22;37034;47.886;-3.904;2022-12-19T10:25:49;15.00;99.90
51007;DHT22;37034;47.886;-3.904;2022-12-19T10:36:43;15.20;99.90
51007;DHT22;37034;47.886;-3.904;2022-12-19T10:45:19;15.40;99.60
51007;DHT22;37034;47.886;-3.904;2022-12-19T10:47:55;15.40;99.50
51007;DHT22;37034;47.886;-3.904;2022-12-19T10:50:27;15.40;99.50
51007;DHT22;37034;47.886;-3.904;2022-12-19T10:55:40;15.40;99.60
51007;DHT22;37034;47.886;-3.904;2022-12-19T10:58:33;15.50;99.50
51007;DHT22;37034;47.886;-3.904;2022-12-19T11:01:08;15.50;99.50
51007;DHT22;37034;47.886;-3.904;2022-12-19T11:03:35;15.50;99.70
51007;DHT22;37034;47.886;-3.904;2022-12-19T11:06:02;15.50;99.70
51007;DHT22;37034;47.886;-3.904;2022-12-19T11:16:09;15.80;99.30
51007;DHT22;37034;47.886;-3.904;2022-12-19T11:18:40;15.90;99.30
51007;DHT22;37034;47.886;-3.904;2022-12-19T11:21:24;15.90;99.00
51007;DHT22;37034;47.886;-3.904;2022-12-19T11:32:02;16.00;99.10
51007;DHT22;37034;47.886;-3.904;2022-12-19T11:34:48;15.80;99.10
51007;DHT22;37034;47.886;-3.904;2022-12-19T11:37:35;15.90;99.20
51007;DHT22;37034;47.886;-3.904;2022-12-19T11:40:12;16.10;98.90
51007;DHT22;37034;47.886;-3.904;2022-12-19T11:42:49;16.00;98.90
51007;DHT22;37034;47.886;-3.904;2022-12-19T11:48:59;16.00;98.80
51007;DHT22;37034;47.886;-3.904;2022-12-19T11:55:15;15.90;98.80
51007;DHT22;37034;47.886;-3.904;2022-12-19T11:57:42;16.00;99.00
51007;DHT22;37034;47.886;-3.904;2022-12-19T12:00:28;16.00;99.10
51007;DHT22;37034;47.886;-3.904;2022-12-19T12:16:03;15.90;98.90
51007;DHT22;37034;47.886;-3.904;2022-12-19T12:25:33;15.90;99.00
51007;DHT22;37034;47.886;-3.904;2022-12-19T12:32:51;15.90;99.10
51007;DHT22;37034;47.886;-3.904;2022-12-19T12:35:38;15.90;99.10
51007;DHT22;37034;47.886;-3.904;2022-12-19T12:38:24;15.80;99.00
51007;DHT22;37034;47.886;-3.904;2022-12-19T12:45:15;16.00;98.90
51007;DHT22;37034;47.886;-3.904;2022-12-19T12:47:59;16.00;99.00
51007;DHT22;37034;47.886;-3.904;2022-12-19T12:50:51;15.90;99.00
51007;DHT22;37034;47.886;-3.904;2022-12-19T12:53:31;15.90;99.30
51007;DHT22;37034;47.886;-3.904;2022-12-19T13:01:47;15.90;99.20
51007;DHT22;37034;47.886;-3.904;2022-12-19T13:04:18;16.00;99.20
51007;DHT22;37034;47.886;-3.904;2022-12-19T13:09:30;16.10;99.00
51007;DHT22;37034;47.886;-3.904;2022-12-19T13:12:25;16.10;99.00
51007;DHT22;37034;47.886;-3.904;2022-12-19T13:15:31;16.10;99.10
51007;DHT22;37034;47.886;-3.904;2022-12-19T13:18:34;16.10;99.10
51007;DHT22;37034;47.886;-3.904;2022-12-19T13:24:46;16.20;98.90
51007;DHT22;37034;47.886;-3.904;2022-12-19T13:30:11;16.10;99.00
51007;DHT22;37034;47.886;-3.904;2022-12-19T13:33:28;16.10;99.00
51007;DHT22;37034;47.886;-3.904;2022-12-19T13:39:30;16.20;99.10
51007;DHT22;37034;47.886;-3.904;2022-12-19T13:45:25;16.10;98.90
51007;DHT22;37034;47.886;-3.904;2022-12-19T13:48:10;16.10;98.90
51007;DHT22;37034;47.886;-3.904;2022-12-19T13:53:50;16.20;98.90
51007;DHT22;37034;47.886;-3.904;2022-12-19T13:56:45;16.20;98.80
51007;DHT22;37034;47.886;-3.904;2022-12-19T13:59:27;16.20;98.70
51007;DHT22;37034;47.886;-3.904;2022-12-19T14:02:15;16.20;98.70
51007;DHT22;37034;47.886;-3.904;2022-12-19T14:04:45;16.10;98.70
51007;DHT22;37034;47.886;-3.904;2022-12-19T14:07:29;16.10;98.70
51007;DHT22;37034;47.886;-3.904;2022-12-19T14:10:20;16.10;98.80
51007;DHT22;37034;47.886;-3.904;2022-12-19T14:12:58;16.10;98.90
51007;DHT22;37034;47.886;-3.904;2022-12-19T14:16:13;16.10;98.80
51007;DHT22;37034;47.886;-3.904;2022-12-19T14:18:47;16.00;98.90
51007;DHT22;37034;47.886;-3.904;2022-12-19T14:21:27;16.00;98.80
51007;DHT22;37034;47.886;-3.904;2022-12-19T14:24:31;16.00;98.80
51007;DHT22;37034;47.886;-3.904;2022-12-19T14:27:16;16.10;98.80
51007;DHT22;37034;47.886;-3.904;2022-12-19T14:32:51;16.10;98.60
51007;DHT22;37034;47.886;-3.904;2022-12-19T14:35:52;16.00;98.70
51007;DHT22;37034;47.886;-3.904;2022-12-19T14:51:44;16.00;98.90
51007;DHT22;37034;47.886;-3.904;2022-12-19T15:03:11;16.00;98.80
51007;DHT22;37034;47.886;-3.904;2022-12-19T15:05:41;16.10;98.70
51007;DHT22;37034;47.886;-3.904;2022-12-19T15:08:09;16.10;98.60
51007;DHT22;37034;47.886;-3.904;2022-12-19T15:10:35;16.10;98.70
51007;DHT22;37034;47.886;-3.904;2022-12-19T15:13:24;16.20;98.60
51007;DHT22;37034;47.886;-3.904;2022-12-19T15:20:55;16.10;98.70
51007;DHT22;37034;47.886;-3.904;2022-12-19T15:23:22;16.10;98.70
51007;DHT22;37034;47.886;-3.904;2022-12-19T15:25:50;16.10;98.50
51007;DHT22;37034;47.886;-3.904;2022-12-19T15:28:19;16.10;98.60
51007;DHT22;37034;47.886;-3.904;2022-12-19T15:31:16;16.00;98.60
51007;DHT22;37034;47.886;-3.904;2022-12-19T15:33:46;16.00;98.70
51007;DHT22;37034;47.886;-3.904;2022-12-19T15:36:11;16.00;98.60
51007;DHT22;37034;47.886;-3.904;2022-12-19T15:38:37;15.90;98.80
51007;DHT22;37034;47.886;-3.904;2022-12-19T15:41:03;15.90;98.80
51007;DHT22;37034;47.886;-3.904;2022-12-19T15:43:29;15.90;98.80
51007;DHT22;37034;47.886;-3.904;2022-12-19T15:45:56;16.00;98.70
51007;DHT22;37034;47.886;-3.904;2022-12-19T15:48:22;15.90;98.70
51007;DHT22;37034;47.886;-3.904;2022-12-19T15:50:48;15.90;98.70
51007;DHT22;37034;47.886;-3.904;2022-12-19T15:53:25;15.80;98.70
51007;DHT22;37034;47.886;-3.904;2022-12-19T15:55:52;15.80;98.90
51007;DHT22;37034;47.886;-3.904;2022-12-19T15:58:18;15.80;99.00
51007;DHT22;37034;47.886;-3.904;2022-12-19T16:00:59;15.90;99.00
51007;DHT22;37034;47.886;-3.904;2022-12-19T16:03:25;15.90;98.90
51007;DHT22;37034;47.886;-3.904;2022-12-19T16:05:51;15.90;98.90
51007;DHT22;37034;47.886;-3.904;2022-12-19T16:08:20;15.90;98.80
51007;DHT22;37034;47.886;-3.904;2022-12-19T16:10:51;15.90;98.70
51007;DHT22;37034;47.886;-3.904;2022-12-19T16:13:27;15.90;98.70
51007;DHT22;37034;47.886;-3.904;2022-12-19T16:15:54;15.80;98.80
51007;DHT22;37034;47.886;-3.904;2022-12-19T16:18:21;15.80;98.90
51007;DHT22;37034;47.886;-3.904;2022-12-19T16:20:47;15.80;98.90
51007;DHT22;37034;47.886;-3.904;2022-12-19T16:23:14;15.80;98.90
51007;DHT22;37034;47.886;-3.904;2022-12-19T16:25:45;15.60;99.10
51007;DHT22;37034;47.886;-3.904;2022-12-19T16:28:31;15.70;99.10
51007;DHT22;37034;47.886;-3.904;2022-12-19T16:31:11;15.70;99.00
51007;DHT22;37034;47.886;-3.904;2022-12-19T16:33:37;15.70;98.90
51007;DHT22;37034;47.886;-3.904;2022-12-19T16:36:03;15.80;98.90
51007;DHT22;37034;47.886;-3.904;2022-12-19T16:38:29;15.70;98.90
51007;DHT22;37034;47.886;-3.904;2022-12-19T16:41:03;15.70;99.10
51007;DHT22;37034;47.886;-3.904;2022-12-19T16:43:36;15.70;99.10
51007;DHT22;37034;47.886;-3.904;2022-12-19T16:46:07;15.70;99.00
51007;DHT22;37034;47.886;-3.904;2022-12-19T16:48:48;15.70;99.20
51007;DHT22;37034;47.886;-3.904;2022-12-19T16:51:23;15.70;99.20
51007;DHT22;37034;47.886;-3.904;2022-12-19T16:53:51;15.80;99.10
51007;DHT22;37034;47.886;-3.904;2022-12-19T16:56:29;15.80;99.00
51007;DHT22;37034;47.886;-3.904;2022-12-19T16:58:57;15.70;99.20
51007;DHT22;37034;47.886;-3.904;2022-12-19T17:01:23;15.70;99.00
51007;DHT22;37034;47.886;-3.904;2022-12-19T17:03:49;15.70;99.10
51007;DHT22;37034;47.886;-3.904;2022-12-19T17:06:17;15.70;99.20
51007;DHT22;37034;47.886;-3.904;2022-12-19T17:08:43;15.80;99.10
51007;DHT22;37034;47.886;-3.904;2022-12-19T17:11:14;15.80;99.20
51007;DHT22;37034;47.886;-3.904;2022-12-19T17:13:42;15.70;99.20
51007;DHT22;37034;47.886;-3.904;2022-12-19T17:16:10;15.70;99.20
51007;DHT22;37034;47.886;-3.904;2022-12-19T17:18:39;15.60;99.30
51007;DHT22;37034;47.886;-3.904;2022-12-19T17:21:06;15.70;99.40
51007;DHT22;37034;47.886;-3.904;2022-12-19T17:23:33;15.70;99.40
51007;DHT22;37034;47.886;-3.904;2022-12-19T17:25:59;15.70;99.30
51007;DHT22;37034;47.886;-3.904;2022-12-19T17:28:26;15.70;99.30
51007;DHT22;37034;47.886;-3.904;2022-12-19T17:30:55;15.70;99.30
51007;DHT22;37034;47.886;-3.904;2022-12-19T17:33:33;15.70;99.30
51007;DHT22;37034;47.886;-3.904;2022-12-19T17:36:01;15.70;99.30
51007;DHT22;37034;47.886;-3.904;2022-12-19T17:38:27;15.70;99.40
51007;DHT22;37034;47.886;-3.904;2022-12-19T17:40:53;15.70;99.30
51007;DHT22;37034;47.886;-3.904;2022-12-19T17:43:19;15.70;99.40
51007;DHT22;37034;47.886;-3.904;2022-12-19T17:45:44;15.60;99.30
51007;DHT22;37034;47.886;-3.904;2022-12-19T17:48:30;15.60;99.50
51007;DHT22;37034;47.886;-3.904;2022-12-19T17:50:57;15.60;99.50
51007;DHT22;37034;47.886;-3.904;2022-12-19T17:53:24;15.60;99.40
51007;DHT22;37034;47.886;-3.904;2022-12-19T17:55:50;15.60;99.50
51007;DHT22;37034;47.886;-3.904;2022-12-19T17:58:17;15.60;99.50
51007;DHT22;37034;47.886;-3.904;2022-12-19T18:00:44;15.60;99.40
51007;DHT22;37034;47.886;-3.904;2022-12-19T18:03:24;15.70;99.40
51007;DHT22;37034;47.886;-3.904;2022-12-19T18:05:52;15.60;99.40
51007;DHT22;37034;47.886;-3.904;2022-12-19T18:10:47;15.70;99.30
51007;DHT22;37034;47.886;-3.904;2022-12-19T18:13:13;15.70;99.40
51007;DHT22;37034;47.886;-3.904;2022-12-19T18:15:39;15.70;99.20
51007;DHT22;37034;47.886;-3.904;2022-12-19T18:18:08;15.80;99.10
51007;DHT22;37034;47.886;-3.904;2022-12-19T18:20:35;15.80;99.20
51007;DHT22;37034;47.886;-3.904;2022-12-19T18:23:01;15.80;99.20
51007;DHT22;37034;47.886;-3.904;2022-12-19T18:25:30;15.80;99.20
51007;DHT22;37034;47.886;-3.904;2022-12-19T18:27:57;15.70;99.40
51007;DHT22;37034;47.886;-3.904;2022-12-19T18:30:23;15.70;99.40
51007;DHT22;37034;47.886;-3.904;2022-12-19T18:32:56;15.60;99.80
51007;DHT22;37034;47.886;-3.904;2022-12-19T18:35:43;15.50;99.70
51007;DHT22;37034;47.886;-3.904;2022-12-19T18:38:20;15.40;99.90
51007;DHT22;37034;47.886;-3.904;2022-12-19T18:40:48;15.40;99.90
51007;DHT22;37034;47.886;-3.904;2022-12-19T18:43:15;15.40;99.90
51007;DHT22;37034;47.886;-3.904;2022-12-19T18:45:46;15.30;99.90
51007;DHT22;37034;47.886;-3.904;2022-12-19T18:48:33;15.30;99.90
51007;DHT22;37034;47.886;-3.904;2022-12-19T18:51:01;15.20;99.90
51007;DHT22;37034;47.886;-3.904;2022-12-19T18:53:28;15.10;99.90
51007;DHT22;37034;47.886;-3.904;2022-12-19T18:56:00;15.10;99.90
51007;DHT22;37034;47.886;-3.904;2022-12-19T18:58:26;15.20;99.90